Time;durP1;ratioP1;P1;durP2;ratioP2;P2;SDS_P1;SDS_P2;PMS_P1;PMS_P2;Temp;Humidity;BMP_temperature;BMP_pressure;BME280_temperature;BME280_humidity;BME280_pressure;Samples;Min_cycle;Max_cycle;Signal;HPM_P1;HPM_P2
2023/08/27 00:01:29;;;;;;;2.27;1.57;;;;;;;;;;5097546;28;20237;-65
2023/08/27 00:03:59;;;;;;;1.60;1.50;;;;;;;;;;5098449;28;20212;-65
2023/08/27 00:06:27;;;;;;;1.40;1.30;;;;;;;;;;5098332;28;20214;-65
2023/08/27 00:08:55;;;;;;;2.90;1.70;;;;;;;;;;5098650;28;20255;-64
2023/08/27 00:11:22;;;;;;;2.13;1.50;;;;;;;;;;5088852;28;20229;-63
2023/08/27 00:13:50;;;;;;;1.80;1.67;;;;;;;;;;5098383;28;20213;-63
2023/08/27 00:16:20;;;;;;;1.50;1.40;;;;;;;;;;5098355;28;20208;-64
2023/08/27 00:18:48;;;;;;;2.93;1.50;;;;;;;;;;5097661;28;20217;-65
2023/08/27 00:21:16;;;;;;;2.13;1.30;;;;;;;;;;5097978;28;20214;-65
2023/08/27 00:23:44;;;;;;;2.03;1.60;;;;;;;;;;5098298;28;20209;-64
2023/08/27 00:26:13;;;;;;;4.03;1.73;;;;;;;;;;5098322;28;20205;-64
2023/08/27 00:28:41;;;;;;;2.70;1.60;;;;;;;;;;5098466;28;20216;-64
2023/08/27 00:31:09;;;;;;;2.50;1.70;;;;;;;;;;5097753;28;20639;-64
2023/08/27 00:33:38;;;;;;;1.97;1.23;;;;;;;;;;5097855;28;20214;-64
2023/08/27 00:36:06;;;;;;;3.57;1.37;;;;;;;;;;5097993;28;20238;-64
2023/08/27 00:38:34;;;;;;;2.83;1.47;;;;;;;;;;5097092;28;20576;-64
2023/08/27 00:41:02;;;;;;;1.50;1.40;;;;;;;;;;5096501;28;20716;-63
2023/08/27 00:43:30;;;;;;;3.30;1.60;;;;;;;;;;5097280;28;20206;-64
2023/08/27 00:45:58;;;;;;;3.80;1.87;;;;;;;;;;5096926;28;20194;-64
2023/08/27 00:48:27;;;;;;;2.33;1.60;;;;;;;;;;5097702;28;20280;-64
2023/08/27 00:50:57;;;;;;;2.47;1.60;;;;;;;;;;5096348;28;20221;-69
2023/08/27 00:53:25;;;;;;;3.73;1.53;;;;;;;;;;5094599;28;20564;-64
2023/08/27 00:55:53;;;;;;;1.60;1.37;;;;;;;;;;5096158;28;20203;-63
2023/08/27 00:58:24;;;;;;;2.43;1.80;;;;;;;;;;5096667;28;20197;-64
2023/08/27 01:00:52;;;;;;;3.47;1.80;;;;;;;;;;5093532;28;20230;-64
2023/08/27 01:03:20;;;;;;;2.40;1.60;;;;;;;;;;5094520;28;20202;-64
2023/08/27 01:05:48;;;;;;;3.77;1.63;;;;;;;;;;5097059;28;20274;-64
2023/08/27 01:08:21;;;;;;;3.30;1.87;;;;;;;;;;5096862;28;20201;-64
2023/08/27 01:10:54;;;;;;;2.47;1.90;;;;;;;;;;5096875;28;20280;-64
2023/08/27 01:13:27;;;;;;;3.10;1.80;;;;;;;;;;5096751;28;20202;-65
2023/08/27 01:15:58;;;;;;;1.77;1.67;;;;;;;;;;5097862;28;20215;-64
2023/08/27 01:18:26;;;;;;;4.33;1.80;;;;;;;;;;5096427;28;20665;-65
2023/08/27 01:20:54;;;;;;;1.63;1.40;;;;;;;;;;5096377;28;20218;-62
2023/08/27 01:23:24;;;;;;;3.10;1.63;;;;;;;;;;5096599;28;20672;-63
2023/08/27 01:25:55;;;;;;;3.00;1.20;;;;;;;;;;5096302;28;20699;-64
2023/08/27 01:28:29;;;;;;;3.03;1.57;;;;;;;;;;5096764;28;20209;-63
2023/08/27 01:30:59;;;;;;;1.57;1.43;;;;;;;;;;5084541;28;20615;-64
2023/08/27 01:33:29;;;;;;;2.07;1.60;;;;;;;;;;5096240;28;20247;-63
2023/08/27 01:35:58;;;;;;;1.70;1.60;;;;;;;;;;5084637;28;20214;-64
2023/08/27 01:38:27;;;;;;;2.60;1.53;;;;;;;;;;5096733;28;20205;-65
2023/08/27 01:40:55;;;;;;;3.10;1.80;;;;;;;;;;5095982;28;20568;-64
2023/08/27 01:43:23;;;;;;;2.00;1.70;;;;;;;;;;5096818;28;20205;-63
2023/08/27 01:45:52;;;;;;;1.93;1.43;;;;;;;;;;5096434;28;20211;-64
2023/08/27 01:48:19;;;;;;;2.57;1.80;;;;;;;;;;5100160;28;20243;-62
2023/08/27 01:50:48;;;;;;;2.03;1.80;;;;;;;;;;5101284;28;20268;-63
2023/08/27 01:53:16;;;;;;;2.33;1.77;;;;;;;;;;5101028;28;20203;-63
2023/08/27 01:55:45;;;;;;;3.07;1.80;;;;;;;;;;5101037;28;20208;-63
2023/08/27 01:58:13;;;;;;;1.97;1.80;;;;;;;;;;5101126;28;20216;-65
2023/08/27 02:00:42;;;;;;;3.80;1.70;;;;;;;;;;5093979;28;20246;-64
2023/08/27 02:03:11;;;;;;;2.43;2.10;;;;;;;;;;5100714;28;20245;-64
2023/08/27 02:05:39;;;;;;;2.03;1.60;;;;;;;;;;5100828;28;20247;-64
2023/08/27 02:08:07;;;;;;;3.60;2.00;;;;;;;;;;5100632;28;20215;-64
2023/08/27 02:10:35;;;;;;;3.90;2.20;;;;;;;;;;5093160;28;20592;-64
2023/08/27 02:13:04;;;;;;;2.20;1.90;;;;;;;;;;5099764;28;20206;-64
2023/08/27 02:15:32;;;;;;;2.23;2.03;;;;;;;;;;5100992;28;20215;-64
2023/08/27 02:18:00;;;;;;;2.37;2.23;;;;;;;;;;5099730;28;20239;-64
2023/08/27 02:20:28;;;;;;;6.13;2.20;;;;;;;;;;5100748;28;20226;-64
2023/08/27 02:22:56;;;;;;;3.03;2.13;;;;;;;;;;5100577;28;20210;-64
2023/08/27 02:25:25;;;;;;;2.83;2.00;;;;;;;;;;5100386;28;20205;-64
2023/08/27 02:27:53;;;;;;;2.30;1.87;;;;;;;;;;5100024;28;20598;-64
2023/08/27 02:30:23;;;;;;;2.20;2.00;;;;;;;;;;5100087;28;20586;-64
2023/08/27 02:32:51;;;;;;;4.37;2.00;;;;;;;;;;5099918;28;20201;-64
2023/08/27 02:35:19;;;;;;;2.60;2.20;;;;;;;;;;5096563;28;20200;-64
2023/08/27 02:37:47;;;;;;;2.70;2.10;;;;;;;;;;5088917;28;20197;-64
2023/08/27 02:40:17;;;;;;;4.87;2.00;;;;;;;;;;5096862;28;20592;-64
2023/08/27 02:42:45;;;;;;;5.20;2.30;;;;;;;;;;5099358;28;20201;-64
2023/08/27 02:45:13;;;;;;;2.53;2.33;;;;;;;;;;5100228;28;20259;-64
2023/08/27 02:47:42;;;;;;;3.13;2.43;;;;;;;;;;5098385;28;20198;-63
2023/08/27 02:50:10;;;;;;;3.07;2.10;;;;;;;;;;5098351;28;20256;-64
2023/08/27 02:52:38;;;;;;;3.43;2.00;;;;;;;;;;5097128;28;20223;-61
2023/08/27 02:55:07;;;;;;;3.13;1.87;;;;;;;;;;5098712;28;20600;-61
2023/08/27 02:57:36;;;;;;;4.87;2.13;;;;;;;;;;5099102;28;20254;-62
2023/08/27 03:00:04;;;;;;;3.40;2.03;;;;;;;;;;5099112;28;20221;-61
2023/08/27 03:02:32;;;;;;;2.33;2.13;;;;;;;;;;5098446;28;20226;-62
2023/08/27 03:05:03;;;;;;;2.43;2.20;;;;;;;;;;5099020;28;20305;-62
2023/08/27 03:07:31;;;;;;;4.77;2.47;;;;;;;;;;5099372;28;20209;-62
2023/08/27 03:09:59;;;;;;;5.53;3.03;;;;;;;;;;5097104;28;20279;-62
2023/08/27 03:12:27;;;;;;;5.63;2.30;;;;;;;;;;5099422;28;20228;-61
2023/08/27 03:14:55;;;;;;;4.83;2.80;;;;;;;;;;5099651;28;20202;-62
2023/08/27 03:17:23;;;;;;;10.37;2.83;;;;;;;;;;5099474;28;20206;-61
2023/08/27 03:19:51;;;;;;;2.77;2.20;;;;;;;;;;5099160;28;20677;-63
2023/08/27 03:22:20;;;;;;;3.33;2.40;;;;;;;;;;5099291;28;20251;-63
2023/08/27 03:24:48;;;;;;;3.70;2.50;;;;;;;;;;5095683;28;20197;-63
2023/08/27 03:27:16;;;;;;;5.10;2.80;;;;;;;;;;5088395;28;20198;-63
2023/08/27 03:29:44;;;;;;;4.53;3.07;;;;;;;;;;5099210;28;20217;-65
2023/08/27 03:32:13;;;;;;;4.83;2.93;;;;;;;;;;5098118;28;20260;-62
2023/08/27 03:34:41;;;;;;;3.57;3.10;;;;;;;;;;5098992;28;20211;-63
2023/08/27 03:37:09;;;;;;;4.30;2.87;;;;;;;;;;5098409;28;20243;-63
2023/08/27 03:39:39;;;;;;;3.90;2.87;;;;;;;;;;5095133;28;20209;-62
2023/08/27 03:42:07;;;;;;;2.97;2.67;;;;;;;;;;5096884;28;20201;-64
2023/08/27 03:44:36;;;;;;;3.13;2.47;;;;;;;;;;5098763;28;20656;-63
2023/08/27 03:47:04;;;;;;;5.17;2.50;;;;;;;;;;5097498;28;20197;-63
2023/08/27 03:49:32;;;;;;;4.67;2.57;;;;;;;;;;5096323;28;20565;-64
2023/08/27 03:52:00;;;;;;;3.07;2.77;;;;;;;;;;5097772;28;20221;-64
2023/08/27 03:54:28;;;;;;;3.50;2.80;;;;;;;;;;5096542;28;20210;-63
2023/08/27 03:56:58;;;;;;;4.43;3.07;;;;;;;;;;5096588;28;20201;-63
2023/08/27 03:59:26;;;;;;;4.77;2.60;;;;;;;;;;5097334;28;20213;-63
2023/08/27 04:01:54;;;;;;;4.47;2.93;;;;;;;;;;5098139;28;20237;-64
2023/08/27 04:04:22;;;;;;;4.90;2.90;;;;;;;;;;5096857;28;20208;-63
2023/08/27 04:06:50;;;;;;;3.97;2.97;;;;;;;;;;5098544;28;20207;-63
2023/08/27 04:09:20;;;;;;;3.50;2.50;;;;;;;;;;5098130;28;20303;-63
2023/08/27 04:11:48;;;;;;;3.53;2.20;;;;;;;;;;5090447;28;20235;-64
2023/08/27 04:14:18;;;;;;;3.83;2.70;;;;;;;;;;5098612;28;20216;-64
2023/08/27 04:16:47;;;;;;;3.03;2.00;;;;;;;;;;5087519;28;20203;-65
2023/08/27 04:19:15;;;;;;;2.67;2.33;;;;;;;;;;5098156;28;20251;-63
2023/08/27 04:21:43;;;;;;;2.90;2.43;;;;;;;;;;5098113;28;20615;-63
2023/08/27 04:24:11;;;;;;;2.43;2.23;;;;;;;;;;5097962;28;20293;-64
2023/08/27 04:26:43;;;;;;;2.70;2.27;;;;;;;;;;5098136;28;20659;-65
2023/08/27 04:29:11;;;;;;;2.40;2.20;;;;;;;;;;5098287;28;20211;-65
2023/08/27 04:31:43;;;;;;;3.20;2.43;;;;;;;;;;5095671;28;20281;-65
2023/08/27 04:34:11;;;;;;;3.63;2.50;;;;;;;;;;5097014;28;20211;-65
2023/08/27 04:36:39;;;;;;;2.60;1.80;;;;;;;;;;5097133;28;20541;-64
2023/08/27 04:39:08;;;;;;;2.10;1.90;;;;;;;;;;5095922;28;20205;-65
2023/08/27 04:41:35;;;;;;;3.20;1.90;;;;;;;;;;5095376;28;20243;-64
2023/08/27 04:44:03;;;;;;;1.60;1.50;;;;;;;;;;5097033;28;20721;-64
2023/08/27 04:46:31;;;;;;;1.80;1.70;;;;;;;;;;5096397;28;20714;-65
2023/08/27 04:49:01;;;;;;;2.20;1.60;;;;;;;;;;5096347;28;20215;-65
2023/08/27 04:51:29;;;;;;;1.93;1.80;;;;;;;;;;5096041;28;20230;-63
2023/08/27 04:53:57;;;;;;;2.13;1.77;;;;;;;;;;5096762;28;20289;-65
2023/08/27 04:56:25;;;;;;;2.17;1.70;;;;;;;;;;5094771;28;20204;-63
2023/08/27 04:58:53;;;;;;;2.23;2.03;;;;;;;;;;5096125;28;20235;-65
2023/08/27 05:01:21;;;;;;;2.30;2.10;;;;;;;;;;5091182;28;20240;-64
2023/08/27 05:03:49;;;;;;;2.27;1.90;;;;;;;;;;5095084;28;20197;-65
2023/08/27 05:06:19;;;;;;;3.13;1.77;;;;;;;;;;5097089;28;20197;-63
2023/08/27 05:08:47;;;;;;;2.27;2.07;;;;;;;;;;5096885;28;20200;-63
2023/08/27 05:11:15;;;;;;;4.07;2.10;;;;;;;;;;5094676;28;20224;-64
2023/08/27 05:13:43;;;;;;;6.37;2.53;;;;;;;;;;5097425;28;20227;-63
2023/08/27 05:16:11;;;;;;;3.23;1.90;;;;;;;;;;5096933;28;20234;-63
2023/08/27 05:18:39;;;;;;;2.90;2.40;;;;;;;;;;5096606;28;20203;-64
2023/08/27 05:21:07;;;;;;;3.83;2.30;;;;;;;;;;5095765;28;20231;-64
2023/08/27 05:23:36;;;;;;;3.90;2.43;;;;;;;;;;5099095;28;20199;-64
2023/08/27 05:26:05;;;;;;;2.83;2.20;;;;;;;;;;5098908;28;20208;-65
2023/08/27 05:28:32;;;;;;;4.20;2.40;;;;;;;;;;5100898;28;20202;-64
2023/08/27 05:31:02;;;;;;;3.73;2.87;;;;;;;;;;5099734;28;20249;-65
2023/08/27 05:33:30;;;;;;;3.90;2.40;;;;;;;;;;5088892;28;20240;-65
2023/08/27 05:35:58;;;;;;;2.23;1.90;;;;;;;;;;5100566;28;20212;-65
2023/08/27 05:38:26;;;;;;;3.80;2.23;;;;;;;;;;5101180;28;20257;-64
2023/08/27 05:40:56;;;;;;;2.10;2.00;;;;;;;;;;5090394;28;20228;-64
2023/08/27 05:43:24;;;;;;;4.30;2.27;;;;;;;;;;5087858;28;20200;-63
2023/08/27 05:45:52;;;;;;;2.73;2.53;;;;;;;;;;5099280;28;20708;-63
2023/08/27 05:48:20;;;;;;;2.77;2.20;;;;;;;;;;5100143;28;20201;-64
2023/08/27 05:50:48;;;;;;;3.97;2.40;;;;;;;;;;5099086;28;20220;-64
2023/08/27 05:53:16;;;;;;;3.43;3.07;;;;;;;;;;5094701;28;20708;-65
2023/08/27 05:55:45;;;;;;;2.40;2.20;;;;;;;;;;5092866;28;20216;-65
2023/08/27 05:58:15;;;;;;;2.47;2.27;;;;;;;;;;5099013;28;20257;-65
2023/08/27 06:00:43;;;;;;;3.63;2.53;;;;;;;;;;5092475;28;20243;-65
2023/08/27 06:03:11;;;;;;;3.07;2.33;;;;;;;;;;5100630;28;20664;-64
2023/08/27 06:05:39;;;;;;;2.77;2.40;;;;;;;;;;5100864;28;20235;-65
2023/08/27 06:08:07;;;;;;;4.97;2.57;;;;;;;;;;5100592;28;20216;-65
2023/08/27 06:10:36;;;;;;;4.97;2.40;;;;;;;;;;5093381;28;20220;-63
2023/08/27 06:13:04;;;;;;;2.97;2.23;;;;;;;;;;5097795;28;20610;-65
2023/08/27 06:15:34;;;;;;;3.87;2.63;;;;;;;;;;5099498;28;20206;-64
2023/08/27 06:18:03;;;;;;;4.90;2.70;;;;;;;;;;5100518;28;20231;-64
2023/08/27 06:20:31;;;;;;;4.63;2.80;;;;;;;;;;5100477;28;20229;-64
2023/08/27 06:22:59;;;;;;;3.57;2.70;;;;;;;;;;5100263;28;20257;-64
2023/08/27 06:25:27;;;;;;;2.43;2.13;;;;;;;;;;5100649;28;20260;-64
2023/08/27 06:27:56;;;;;;;3.80;2.37;;;;;;;;;;5099664;28;20208;-64
2023/08/27 06:30:25;;;;;;;2.63;2.13;;;;;;;;;;5100265;28;20232;-64
2023/08/27 06:32:54;;;;;;;5.23;2.20;;;;;;;;;;5097893;28;20283;-64
2023/08/27 06:35:22;;;;;;;2.60;2.40;;;;;;;;;;5099576;28;20233;-64
2023/08/27 06:37:50;;;;;;;3.27;2.17;;;;;;;;;;5099278;28;20679;-64
2023/08/27 06:40:18;;;;;;;3.37;2.10;;;;;;;;;;5094904;28;20251;-64
2023/08/27 06:42:46;;;;;;;3.67;2.30;;;;;;;;;;5099147;28;20660;-64
2023/08/27 06:45:14;;;;;;;4.03;2.30;;;;;;;;;;5100251;28;20212;-64
2023/08/27 06:47:44;;;;;;;3.27;2.10;;;;;;;;;;5098854;28;20239;-64
2023/08/27 06:50:14;;;;;;;4.83;2.17;;;;;;;;;;5100046;28;20273;-64
2023/08/27 06:52:44;;;;;;;3.03;2.00;;;;;;;;;;5096621;28;21290;-64
2023/08/27 06:55:12;;;;;;;2.57;2.00;;;;;;;;;;5099182;28;20200;-64
2023/08/27 06:57:40;;;;;;;7.07;2.20;;;;;;;;;;5098045;28;20218;-64
2023/08/27 07:00:09;;;;;;;3.57;2.83;;;;;;;;;;5100066;28;20228;-64
2023/08/27 07:02:37;;;;;;;4.97;1.83;;;;;;;;;;5098667;28;20726;-65
2023/08/27 07:05:08;;;;;;;3.37;2.00;;;;;;;;;;5097856;28;20240;-63
2023/08/27 07:07:38;;;;;;;1.77;1.67;;;;;;;;;;5099086;28;20244;-64
2023/08/27 07:10:08;;;;;;;1.80;1.70;;;;;;;;;;5098065;28;20327;-64
2023/08/27 07:12:36;;;;;;;2.80;1.80;;;;;;;;;;5098650;28;20234;-64
2023/08/27 07:15:05;;;;;;;1.60;1.50;;;;;;;;;;5099223;28;20297;-63
2023/08/27 07:17:33;;;;;;;5.27;1.80;;;;;;;;;;5098322;28;20227;-64
2023/08/27 07:20:03;;;;;;;2.73;2.13;;;;;;;;;;5098402;28;20562;-63
2023/08/27 07:22:31;;;;;;;1.80;1.67;;;;;;;;;;5098608;28;20304;-64
2023/08/27 07:25:01;;;;;;;3.50;1.60;;;;;;;;;;5099063;28;20579;-63
2023/08/27 07:27:29;;;;;;;4.37;1.50;;;;;;;;;;5097426;28;20256;-65
2023/08/27 07:29:57;;;;;;;3.20;1.50;;;;;;;;;;5085247;28;20231;-63
2023/08/27 07:32:25;;;;;;;1.67;1.43;;;;;;;;;;5097305;28;20208;-64
2023/08/27 07:34:53;;;;;;;2.83;1.53;;;;;;;;;;5098597;28;20639;-65
2023/08/27 07:37:21;;;;;;;1.43;1.33;;;;;;;;;;5097233;28;20206;-63
2023/08/27 07:39:49;;;;;;;1.50;1.27;;;;;;;;;;5096374;28;20210;-63
2023/08/27 07:42:21;;;;;;;2.20;1.60;;;;;;;;;;5093348;28;20201;-63
2023/08/27 07:44:49;;;;;;;2.33;1.50;;;;;;;;;;5096584;28;20195;-65
2023/08/27 07:47:17;;;;;;;3.27;1.60;;;;;;;;;;5096542;28;20601;-63
2023/08/27 07:49:46;;;;;;;1.30;1.20;;;;;;;;;;5094674;28;20208;-63
2023/08/27 07:52:14;;;;;;;2.47;1.50;;;;;;;;;;5096770;28;20199;-65
2023/08/27 07:54:41;;;;;;;3.33;1.37;;;;;;;;;;5098753;28;20255;-64
2023/08/27 07:57:10;;;;;;;2.23;1.40;;;;;;;;;;5097839;28;20234;-63
2023/08/27 07:59:39;;;;;;;2.97;1.30;;;;;;;;;;5090627;28;20267;-63
2023/08/27 08:02:07;;;;;;;2.13;1.07;;;;;;;;;;5092596;28;20231;-64
2023/08/27 08:04:35;;;;;;;2.60;1.10;;;;;;;;;;5098337;28;20687;-65
2023/08/27 08:07:03;;;;;;;1.67;1.30;;;;;;;;;;5098890;28;20211;-63
2023/08/27 08:09:31;;;;;;;2.00;1.23;;;;;;;;;;5098278;28;20201;-65
2023/08/27 08:11:59;;;;;;;2.53;1.80;;;;;;;;;;5087854;28;20207;-64
2023/08/27 08:14:27;;;;;;;3.43;1.60;;;;;;;;;;5097785;28;20702;-63
2023/08/27 08:16:57;;;;;;;2.67;1.60;;;;;;;;;;5098148;28;20579;-65
2023/08/27 08:19:25;;;;;;;2.00;1.80;;;;;;;;;;5098521;28;20268;-63
2023/08/27 08:21:53;;;;;;;3.27;1.63;;;;;;;;;;5098114;28;20696;-64
2023/08/27 08:24:21;;;;;;;1.53;1.43;;;;;;;;;;5098012;28;20209;-64
2023/08/27 08:26:52;;;;;;;3.73;1.43;;;;;;;;;;5098426;28;20233;-63
2023/08/27 08:29:21;;;;;;;3.87;1.40;;;;;;;;;;5098090;28;20212;-63
2023/08/27 08:31:49;;;;;;;1.80;1.60;;;;;;;;;;5096613;28;20680;-64
2023/08/27 08:34:19;;;;;;;1.57;1.30;;;;;;;;;;5097921;28;20236;-63
2023/08/27 08:36:47;;;;;;;2.43;1.20;;;;;;;;;;5098014;28;20303;-63
2023/08/27 08:39:16;;;;;;;1.50;1.40;;;;;;;;;;5097822;28;20216;-64
2023/08/27 08:41:47;;;;;;;4.07;1.53;;;;;;;;;;5094238;28;20224;-63
2023/08/27 08:44:21;;;;;;;2.43;1.30;;;;;;;;;;5098261;28;20205;-63
2023/08/27 08:46:52;;;;;;;5.57;1.37;;;;;;;;;;5095684;28;20703;-63
2023/08/27 08:49:22;;;;;;;1.40;1.30;;;;;;;;;;5093536;28;20611;-64
2023/08/27 08:51:54;;;;;;;2.80;1.40;;;;;;;;;;5094825;28;20244;-64
2023/08/27 08:54:23;;;;;;;4.23;1.17;;;;;;;;;;5096984;28;20216;-64
2023/08/27 08:56:54;;;;;;;3.43;1.17;;;;;;;;;;5095805;28;20197;-64
2023/08/27 08:59:22;;;;;;;2.50;1.30;;;;;;;;;;5096784;28;20605;-64
2023/08/27 09:01:50;;;;;;;0.90;0.90;;;;;;;;;;5096143;28;20298;-65
2023/08/27 09:04:20;;;;;;;1.27;1.10;;;;;;;;;;5089418;28;20205;-65
2023/08/27 09:06:50;;;;;;;3.67;1.20;;;;;;;;;;5095433;28;20208;-64
2023/08/27 09:09:19;;;;;;;1.10;1.00;;;;;;;;;;5097545;28;20212;-65
2023/08/27 09:11:49;;;;;;;2.63;0.97;;;;;;;;;;5096255;28;20227;-64
2023/08/27 09:14:20;;;;;;;1.70;1.30;;;;;;;;;;5097803;28;20256;-65
2023/08/27 09:16:49;;;;;;;1.33;1.20;;;;;;;;;;5095325;28;20220;-64
2023/08/27 09:19:16;;;;;;;1.53;1.10;;;;;;;;;;5096677;28;20198;-65
2023/08/27 09:21:45;;;;;;;1.93;1.00;;;;;;;;;;5096604;28;20225;-64
2023/08/27 09:24:14;;;;;;;1.23;1.10;;;;;;;;;;5096457;28;20726;-65
2023/08/27 09:26:42;;;;;;;1.33;1.00;;;;;;;;;;5096466;28;20224;-65
2023/08/27 09:29:10;;;;;;;1.10;1.00;;;;;;;;;;5097686;28;20234;-64
2023/08/27 09:31:39;;;;;;;2.50;0.80;;;;;;;;;;5096179;28;20228;-65
2023/08/27 09:34:09;;;;;;;1.13;0.90;;;;;;;;;;5095627;28;20202;-64
2023/08/27 09:36:37;;;;;;;1.43;1.20;;;;;;;;;;5096733;28;20219;-64
2023/08/27 09:39:09;;;;;;;3.87;1.40;;;;;;;;;;5097490;28;20212;-65
2023/08/27 09:41:41;;;;;;;2.53;1.20;;;;;;;;;;5094514;28;20232;-65
2023/08/27 09:44:09;;;;;;;0.83;0.80;;;;;;;;;;5096400;28;20566;-64
2023/08/27 09:46:37;;;;;;;1.57;1.10;;;;;;;;;;5095881;28;20682;-65
2023/08/27 09:49:06;;;;;;;1.10;1.00;;;;;;;;;;5094196;28;20566;-65
2023/08/27 09:51:35;;;;;;;2.47;1.03;;;;;;;;;;5096178;28;20226;-65
2023/08/27 09:54:12;;;;;;;1.03;0.93;;;;;;;;;;5096184;28;20198;-64
2023/08/27 09:56:44;;;;;;;3.37;1.60;;;;;;;;;;5094734;28;20229;-64
2023/08/27 09:59:14;;;;;;;2.67;1.10;;;;;;;;;;5092604;28;20218;-64
2023/08/27 10:01:46;;;;;;;3.53;1.00;;;;;;;;;;5095004;28;20738;-64
2023/08/27 10:04:14;;;;;;;1.47;0.80;;;;;;;;;;5097430;28;20210;-65
2023/08/27 10:06:42;;;;;;;2.50;0.83;;;;;;;;;;5097394;28;20206;-65
2023/08/27 10:09:11;;;;;;;1.60;0.83;;;;;;;;;;5099911;28;20205;-65
2023/08/27 10:11:39;;;;;;;0.90;0.90;;;;;;;;;;5091608;28;20226;-65
2023/08/27 10:14:08;;;;;;;2.30;0.83;;;;;;;;;;5099552;28;20201;-64
2023/08/27 10:16:36;;;;;;;0.97;0.87;;;;;;;;;;5100100;28;20568;-65
2023/08/27 10:19:05;;;;;;;2.73;1.13;;;;;;;;;;5100506;28;20646;-65
2023/08/27 10:21:33;;;;;;;1.13;0.83;;;;;;;;;;5100426;28;20221;-65
2023/08/27 10:24:02;;;;;;;1.87;0.70;;;;;;;;;;5100366;28;20219;-64
2023/08/27 10:26:31;;;;;;;1.67;0.80;;;;;;;;;;5100520;28;20203;-64
2023/08/27 10:28:59;;;;;;;1.37;0.90;;;;;;;;;;5099247;28;20206;-64
2023/08/27 10:31:29;;;;;;;2.87;1.50;;;;;;;;;;5098818;28;20225;-64
2023/08/27 10:33:57;;;;;;;1.93;0.90;;;;;;;;;;5090873;28;20285;-64
2023/08/27 10:36:28;;;;;;;1.70;0.87;;;;;;;;;;5099479;28;20236;-64
2023/08/27 10:38:56;;;;;;;1.37;0.93;;;;;;;;;;5087192;28;20210;-65
2023/08/27 10:41:25;;;;;;;1.20;0.90;;;;;;;;;;5099334;28;20745;-64
2023/08/27 10:43:54;;;;;;;0.83;0.83;;;;;;;;;;5087377;28;20740;-64
2023/08/27 10:46:25;;;;;;;1.03;1.00;;;;;;;;;;5099370;28;20198;-63
2023/08/27 10:48:54;;;;;;;1.70;0.70;;;;;;;;;;5098822;28;20203;-64
2023/08/27 10:51:29;;;;;;;2.20;0.83;;;;;;;;;;5099621;28;20227;-64
2023/08/27 10:53:57;;;;;;;1.20;0.63;;;;;;;;;;5097786;28;20199;-65
2023/08/27 10:56:26;;;;;;;1.77;0.90;;;;;;;;;;5099201;28;20262;-65
2023/08/27 10:58:57;;;;;;;1.03;0.80;;;;;;;;;;5098884;28;20205;-64
2023/08/27 11:01:25;;;;;;;0.70;0.70;;;;;;;;;;5098453;28;20629;-65
2023/08/27 11:03:58;;;;;;;1.07;0.70;;;;;;;;;;5085825;28;20233;-65
2023/08/27 11:06:41;;;;;;;0.97;0.80;;;;;;;;;;5097818;28;20202;-64
2023/08/27 11:09:16;;;;;;;1.10;1.00;;;;;;;;;;5099741;28;20212;-65
2023/08/27 11:11:51;;;;;;;4.23;0.83;;;;;;;;;;5096072;28;20261;-65
2023/08/27 11:14:20;;;;;;;6.17;1.20;;;;;;;;;;5098978;28;20205;-64
2023/08/27 11:16:49;;;;;;;1.67;0.97;;;;;;;;;;5097923;28;20221;-64
2023/08/27 11:19:28;;;;;;;2.37;0.93;;;;;;;;;;5098704;28;20274;-65
2023/08/27 11:22:09;;;;;;;2.33;0.80;;;;;;;;;;5098866;28;20289;-63
2023/08/27 11:24:39;;;;;;;1.20;0.60;;;;;;;;;;5099150;28;20204;-63
2023/08/27 11:27:08;;;;;;;1.80;0.80;;;;;;;;;;5098289;28;20240;-63
2023/08/27 11:29:39;;;;;;;1.63;0.67;;;;;;;;;;5097323;28;20201;-65
2023/08/27 11:32:07;;;;;;;1.70;1.00;;;;;;;;;;5098015;28;20205;-65
2023/08/27 11:34:38;;;;;;;0.97;0.80;;;;;;;;;;5097284;28;20202;-64
2023/08/27 11:37:06;;;;;;;0.70;0.70;;;;;;;;;;5098330;28;20235;-64
2023/08/27 11:39:35;;;;;;;1.87;0.80;;;;;;;;;;5097461;28;20756;-63
2023/08/27 11:42:08;;;;;;;0.60;0.60;;;;;;;;;;5087077;28;20572;-63
2023/08/27 11:44:36;;;;;;;1.63;0.80;;;;;;;;;;5096839;28;20204;-65
2023/08/27 11:47:05;;;;;;;2.93;1.00;;;;;;;;;;5097279;28;20601;-65
2023/08/27 11:49:35;;;;;;;1.70;0.80;;;;;;;;;;5097913;28;20260;-63
2023/08/27 11:52:05;;;;;;;0.93;0.93;;;;;;;;;;5096401;28;20194;-64
2023/08/27 11:54:34;;;;;;;0.90;0.87;;;;;;;;;;5098865;28;20237;-62
2023/08/27 11:57:03;;;;;;;1.20;0.97;;;;;;;;;;5097429;28;20230;-63
2023/08/27 11:59:31;;;;;;;1.70;0.90;;;;;;;;;;5091538;28;20209;-63
2023/08/27 12:01:59;;;;;;;2.30;1.10;;;;;;;;;;5091969;28;20280;-62
2023/08/27 12:04:28;;;;;;;1.00;0.80;;;;;;;;;;5098455;28;20610;-64
2023/08/27 12:06:57;;;;;;;1.33;0.97;;;;;;;;;;5098412;28;20201;-64
2023/08/27 12:09:28;;;;;;;1.97;1.07;;;;;;;;;;5098145;28;20204;-63
2023/08/27 12:12:02;;;;;;;1.63;0.97;;;;;;;;;;5098274;28;20225;-64
2023/08/27 12:14:30;;;;;;;2.67;0.80;;;;;;;;;;5088291;28;20259;-65
2023/08/27 12:17:01;;;;;;;0.90;0.90;;;;;;;;;;5097822;28;20272;-64
2023/08/27 12:19:29;;;;;;;1.27;1.00;;;;;;;;;;5098195;28;20676;-65
2023/08/27 12:21:58;;;;;;;2.90;1.10;;;;;;;;;;5098296;28;20210;-65
2023/08/27 12:24:31;;;;;;;1.70;0.90;;;;;;;;;;5098293;28;20216;-62
2023/08/27 12:27:03;;;;;;;1.43;1.00;;;;;;;;;;5097370;28;20194;-64
2023/08/27 12:29:32;;;;;;;1.83;0.80;;;;;;;;;;5096178;28;20205;-62
2023/08/27 12:32:07;;;;;;;1.70;0.87;;;;;;;;;;5096804;28;20205;-63
2023/08/27 12:34:38;;;;;;;2.13;1.33;;;;;;;;;;5098148;28;20238;-63
2023/08/27 12:37:07;;;;;;;1.73;1.00;;;;;;;;;;5095655;28;20270;-63
2023/08/27 12:39:37;;;;;;;1.50;0.80;;;;;;;;;;5097234;28;20231;-63
2023/08/27 12:42:05;;;;;;;2.03;1.00;;;;;;;;;;5087825;28;20205;-63
2023/08/27 12:44:33;;;;;;;1.73;1.03;;;;;;;;;;5096521;28;20202;-65
2023/08/27 12:47:02;;;;;;;1.27;0.67;;;;;;;;;;5092355;28;20197;-64
2023/08/27 12:49:30;;;;;;;2.50;0.90;;;;;;;;;;5097939;28;20209;-65
2023/08/27 12:51:58;;;;;;;2.60;1.00;;;;;;;;;;5096334;28;20209;-65
2023/08/27 12:54:27;;;;;;;1.27;0.70;;;;;;;;;;5084541;28;20213;-64
2023/08/27 12:56:56;;;;;;;0.57;0.50;;;;;;;;;;5096216;28;20229;-62
2023/08/27 12:59:24;;;;;;;0.50;0.50;;;;;;;;;;5091759;28;20210;-63
2023/08/27 13:01:53;;;;;;;3.10;0.67;;;;;;;;;;5092688;28;20233;-63
2023/08/27 13:04:22;;;;;;;0.93;0.80;;;;;;;;;;5095757;28;20671;-64
2023/08/27 13:06:51;;;;;;;2.43;0.80;;;;;;;;;;5096855;28;20204;-63
2023/08/27 13:09:19;;;;;;;1.50;0.83;;;;;;;;;;5094776;28;20208;-64
2023/08/27 13:11:47;;;;;;;1.03;0.80;;;;;;;;;;5096315;28;20226;-65
2023/08/27 13:14:17;;;;;;;2.10;0.93;;;;;;;;;;5096840;28;20257;-64
2023/08/27 13:16:47;;;;;;;2.23;1.00;;;;;;;;;;5096663;28;20264;-66
2023/08/27 13:19:15;;;;;;;1.70;0.70;;;;;;;;;;5097963;28;20237;-65
2023/08/27 13:21:46;;;;;;;2.87;0.93;;;;;;;;;;5095349;28;20224;-65
2023/08/27 13:24:16;;;;;;;2.77;0.80;;;;;;;;;;5095212;28;20202;-63
2023/08/27 13:26:46;;;;;;;1.90;0.60;;;;;;;;;;5096499;28;20285;-63
2023/08/27 13:29:14;;;;;;;1.80;0.60;;;;;;;;;;5096774;28;20206;-65
2023/08/27 13:31:44;;;;;;;2.57;0.80;;;;;;;;;;5096085;28;20226;-65
2023/08/27 13:34:12;;;;;;;1.33;0.70;;;;;;;;;;5096707;28;20207;-63
2023/08/27 13:36:40;;;;;;;1.20;1.10;;;;;;;;;;5096570;28;20682;-63
2023/08/27 13:39:08;;;;;;;1.60;1.10;;;;;;;;;;5096391;28;20228;-63
2023/08/27 13:41:36;;;;;;;1.53;0.83;;;;;;;;;;5095319;28;20219;-63
2023/08/27 13:44:05;;;;;;;1.87;0.90;;;;;;;;;;5087119;28;20207;-63
2023/08/27 13:46:33;;;;;;;1.67;1.00;;;;;;;;;;5100089;28;20206;-65
2023/08/27 13:49:02;;;;;;;1.27;0.70;;;;;;;;;;5099140;28;20211;-63
2023/08/27 13:51:30;;;;;;;1.00;0.80;;;;;;;;;;5098529;28;20308;-63
2023/08/27 13:53:58;;;;;;;1.67;1.57;;;;;;;;;;5099437;28;20604;-63
2023/08/27 13:56:26;;;;;;;1.50;0.80;;;;;;;;;;5101196;28;20206;-63
2023/08/27 13:58:54;;;;;;;1.20;0.87;;;;;;;;;;5099790;28;20199;-63
2023/08/27 14:01:24;;;;;;;0.87;0.80;;;;;;;;;;5100855;28;20256;-64
2023/08/27 14:03:52;;;;;;;1.30;0.90;;;;;;;;;;5101008;28;20284;-63
2023/08/27 14:06:22;;;;;;;1.47;0.80;;;;;;;;;;5100695;28;20213;-62
2023/08/27 14:08:50;;;;;;;2.30;0.80;;;;;;;;;;5100999;28;20212;-63
2023/08/27 14:11:18;;;;;;;2.97;0.93;;;;;;;;;;5093133;28;20685;-65
2023/08/27 14:13:45;;;;;;;2.00;0.70;;;;;;;;;;5100079;28;20628;-63
2023/08/27 14:16:14;;;;;;;3.57;1.40;;;;;;;;;;5099273;28;20198;-63
2023/08/27 14:18:42;;;;;;;2.03;1.10;;;;;;;;;;5098963;28;20217;-63
2023/08/27 14:21:10;;;;;;;3.67;1.23;;;;;;;;;;5100370;28;20225;-64
2023/08/27 14:23:40;;;;;;;1.10;0.80;;;;;;;;;;5099663;28;20202;-64
2023/08/27 14:26:08;;;;;;;2.47;0.93;;;;;;;;;;5100713;28;20264;-63
2023/08/27 14:28:36;;;;;;;1.07;0.97;;;;;;;;;;5098467;28;20198;-63
2023/08/27 14:31:04;;;;;;;2.20;1.10;;;;;;;;;;5100220;28;20230;-63
2023/08/27 14:33:32;;;;;;;2.37;1.10;;;;;;;;;;5095498;28;20611;-63
2023/08/27 14:36:01;;;;;;;2.87;1.00;;;;;;;;;;5097526;28;20603;-63
2023/08/27 14:38:29;;;;;;;2.53;1.40;;;;;;;;;;5099519;28;20214;-63
2023/08/27 14:40:59;;;;;;;2.47;1.00;;;;;;;;;;5097323;28;20227;-64
2023/08/27 14:43:27;;;;;;;0.80;0.77;;;;;;;;;;5099327;28;20200;-64
2023/08/27 14:45:55;;;;;;;2.13;1.10;;;;;;;;;;5099579;28;20594;-63
2023/08/27 14:48:23;;;;;;;1.47;0.70;;;;;;;;;;5098511;28;20557;-64
2023/08/27 14:50:51;;;;;;;1.37;1.00;;;;;;;;;;5097837;28;20359;-63
2023/08/27 14:53:19;;;;;;;2.00;1.07;;;;;;;;;;5098911;28;20203;-62